createdAt,value
2017-11-15T00:01:30.568Z,10.43
2017-11-15T00:03:58.928Z,8.83
2017-11-15T00:06:27.275Z,8.97
2017-11-15T00:08:55.628Z,9.87
2017-11-15T00:11:25.362Z,9.03
2017-11-15T00:13:53.737Z,8.63
2017-11-15T00:16:22.084Z,7.87
2017-11-15T00:18:51.260Z,6.83
2017-11-15T00:21:19.622Z,8.23
2017-11-15T00:23:48.006Z,7.30
2017-11-15T00:26:16.347Z,6.87
2017-11-15T00:28:44.683Z,6.80
2017-11-15T00:31:13.044Z,11.90
2017-11-15T00:33:41.416Z,8.90
2017-11-15T00:36:09.799Z,12.77
2017-11-15T00:38:38.152Z,9.90
2017-11-15T00:41:08.192Z,17.80
2017-11-15T00:43:36.543Z,14.60
2017-11-15T00:46:05.691Z,12.87
2017-11-15T00:48:34.274Z,11.63
2017-11-15T00:51:04.270Z,10.43
2017-11-15T00:53:33.386Z,9.67
2017-11-15T00:56:01.729Z,8.50
2017-11-15T00:58:30.071Z,8.43
2017-11-15T01:00:58.467Z,7.17
2017-11-15T01:03:26.800Z,6.50
2017-11-15T01:05:55.152Z,9.03
2017-11-15T01:08:23.562Z,8.20
2017-11-15T01:10:51.916Z,7.53
2017-11-15T01:13:20.330Z,10.03
2017-11-15T01:15:48.685Z,10.63
2017-11-15T01:18:17.090Z,11.20
2017-11-15T01:20:45.473Z,9.50
2017-11-15T01:23:14.229Z,7.70
2017-11-15T01:25:42.586Z,11.10
2017-11-15T01:28:10.943Z,7.13
2017-11-15T01:30:39.317Z,5.93
2017-11-15T01:33:07.674Z,5.43
2017-11-15T01:35:36.061Z,6.80
2017-11-15T01:38:04.409Z,5.70
2017-11-15T01:40:33.666Z,5.40
2017-11-15T01:43:02.017Z,5.60
2017-11-15T01:45:30.387Z,6.40
2017-11-15T01:47:58.766Z,5.70
2017-11-15T01:50:27.106Z,4.30
2017-11-15T01:52:55.500Z,7.57
2017-11-15T01:55:23.880Z,5.90
2017-11-15T01:57:52.541Z,4.57
2017-11-15T02:03:25.792Z,6.07
2017-11-15T02:05:55.047Z,9.47
2017-11-15T02:08:24.172Z,5.83
2017-11-15T02:10:53.440Z,6.10
2017-11-15T02:13:21.779Z,4.80
2017-11-15T02:15:50.113Z,4.60
2017-11-15T02:18:19.237Z,5.70
2017-11-15T02:20:48.493Z,5.13
2017-11-15T02:23:16.866Z,8.63
2017-11-15T02:25:45.209Z,7.83
2017-11-15T02:28:14.461Z,7.57
2017-11-15T02:30:42.800Z,5.47
2017-11-15T02:33:12.102Z,3.90
2017-11-15T02:35:40.449Z,4.10
2017-11-15T02:38:08.872Z,4.47
2017-11-15T02:40:37.230Z,6.03
2017-11-15T02:43:05.565Z,3.27
2017-11-15T02:45:34.046Z,4.80
2017-11-15T02:48:02.398Z,3.70
2017-11-15T02:50:30.739Z,4.13
2017-11-15T02:52:59.997Z,3.77
2017-11-15T02:55:28.334Z,4.40
2017-11-15T02:57:56.702Z,5.00
2017-11-15T03:00:25.047Z,4.20
2017-11-15T03:02:53.384Z,3.17
2017-11-15T03:05:21.759Z,3.37
2017-11-15T03:07:50.104Z,2.77
2017-11-15T03:10:18.580Z,5.00
2017-11-15T03:12:46.955Z,5.07
2017-11-15T03:15:15.300Z,4.87
2017-11-15T03:17:43.640Z,5.77
2017-11-15T03:20:11.989Z,5.77
2017-11-15T03:22:40.362Z,3.90
2017-11-15T03:25:08.697Z,3.80
2017-11-15T03:27:37.040Z,3.80
2017-11-15T03:30:05.385Z,3.50
2017-11-15T03:32:33.731Z,3.43
2017-11-15T03:35:02.113Z,5.50
2017-11-15T03:37:31.172Z,5.77
2017-11-15T03:39:59.528Z,5.37
2017-11-15T03:42:27.884Z,12.80
2017-11-15T03:44:56.224Z,8.57
2017-11-15T03:47:24.565Z,6.60
2017-11-15T03:49:52.914Z,7.60
2017-11-15T03:52:21.285Z,8.00
2017-11-15T03:54:49.708Z,6.17
2017-11-15T03:57:18.057Z,7.27
2017-11-15T03:59:46.433Z,6.90
2017-11-15T04:02:14.778Z,5.67
2017-11-15T04:04:43.153Z,5.40
2017-11-15T04:07:11.505Z,5.27
2017-11-15T04:09:39.844Z,5.60
2017-11-15T04:12:08.189Z,6.23
2017-11-15T04:14:36.537Z,6.13
2017-11-15T04:17:04.970Z,5.47
2017-11-15T04:19:33.315Z,3.20
2017-11-15T04:22:01.651Z,4.30
2017-11-15T04:24:29.997Z,4.20
2017-11-15T04:26:58.329Z,4.90
2017-11-15T04:29:26.712Z,4.07
2017-11-15T04:31:55.035Z,5.17
2017-11-15T04:34:23.395Z,9.07
2017-11-15T04:36:51.737Z,7.00
2017-11-15T04:39:20.076Z,4.73
2017-11-15T04:41:48.449Z,4.30
2017-11-15T04:44:16.790Z,3.60
2017-11-15T04:46:45.132Z,3.60
2017-11-15T04:49:13.468Z,3.20
2017-11-15T04:51:41.805Z,3.07
2017-11-15T04:54:10.173Z,3.53
2017-11-15T04:56:38.516Z,3.30
2017-11-15T04:59:06.909Z,3.03
2017-11-15T05:01:35.240Z,3.27
2017-11-15T05:04:03.586Z,3.40
2017-11-15T05:06:32.066Z,3.70
2017-11-15T05:09:00.428Z,3.40
2017-11-15T05:11:28.796Z,4.27
2017-11-15T05:13:57.142Z,5.83
2017-11-15T05:16:25.488Z,5.93
2017-11-15T05:18:53.860Z,5.70
2017-11-15T05:21:22.203Z,6.10
2017-11-15T05:23:50.541Z,6.37
2017-11-15T05:26:18.877Z,7.20
2017-11-15T05:28:47.232Z,9.70
2017-11-15T05:31:15.605Z,8.07
2017-11-15T05:33:43.953Z,7.60
2017-11-15T05:36:12.356Z,7.70
2017-11-15T05:38:40.693Z,6.03
2017-11-15T05:41:09.048Z,7.90
2017-11-15T05:43:37.534Z,7.23
2017-11-15T05:46:05.877Z,7.50
2017-11-15T05:48:34.269Z,6.40
2017-11-15T05:51:02.701Z,8.23
2017-11-15T05:53:31.048Z,11.60
2017-11-15T05:55:59.391Z,11.33
2017-11-15T05:58:27.735Z,11.53
2017-11-15T06:00:56.080Z,12.40
2017-11-15T06:03:24.446Z,11.50
2017-11-15T06:05:52.798Z,14.20
2017-11-15T06:08:21.172Z,15.30
2017-11-15T06:10:49.619Z,21.33
2017-11-15T06:13:17.968Z,19.60
2017-11-15T06:15:46.402Z,9.53
2017-11-15T06:18:14.655Z,13.93
2017-11-15T06:20:43.117Z,14.70
2017-11-15T06:23:11.415Z,13.90
2017-11-15T06:25:39.858Z,12.63
2017-11-15T06:28:08.181Z,13.07
2017-11-15T06:30:36.606Z,15.77
2017-11-15T06:33:04.897Z,18.50
2017-11-15T06:35:33.298Z,13.60
2017-11-15T06:38:02.294Z,19.00
2017-11-15T06:40:34.477Z,16.60
2017-11-15T06:43:04.381Z,15.47
2017-11-15T06:45:32.748Z,13.67
2017-11-15T06:48:02.233Z,9.17
2017-11-15T06:50:30.601Z,11.37
2017-11-15T06:52:59.075Z,11.70
2017-11-15T06:55:27.416Z,6.17
2017-11-15T06:57:55.769Z,9.67
2017-11-15T07:00:24.115Z,8.37
2017-11-15T07:02:52.455Z,9.17
2017-11-15T07:05:20.838Z,9.80
2017-11-15T07:07:49.184Z,10.43
2017-11-15T07:10:17.530Z,15.00
2017-11-15T07:12:45.897Z,11.30
2017-11-15T07:15:14.247Z,10.30
2017-11-15T07:17:42.689Z,11.27
2017-11-15T07:20:11.037Z,8.97
2017-11-15T07:22:39.372Z,7.60
2017-11-15T07:25:07.721Z,9.00
2017-11-15T07:27:36.093Z,7.87
2017-11-15T07:30:04.429Z,7.77
2017-11-15T07:32:32.809Z,11.03
2017-11-15T07:35:01.158Z,11.77
2017-11-15T07:37:29.516Z,10.07
2017-11-15T07:39:57.864Z,10.47
2017-11-15T07:42:26.240Z,13.63
2017-11-15T07:44:54.591Z,10.73
2017-11-15T07:47:22.941Z,16.07
2017-11-15T07:49:51.286Z,18.03
2017-11-15T07:52:19.638Z,10.17
2017-11-15T07:54:47.987Z,11.07
2017-11-15T07:57:16.396Z,11.40
2017-11-15T07:59:44.740Z,10.17
2017-11-15T08:02:13.085Z,11.63
2017-11-15T08:04:41.480Z,11.63
2017-11-15T08:07:09.832Z,12.10
2017-11-15T08:09:38.171Z,15.30
2017-11-15T08:12:06.648Z,11.17
2017-11-15T08:14:35.923Z,12.03
2017-11-15T08:17:04.305Z,14.80
2017-11-15T08:19:32.644Z,14.93
2017-11-15T08:22:00.993Z,13.47
2017-11-15T08:24:29.348Z,16.43
2017-11-15T08:26:57.693Z,10.73
2017-11-15T08:29:26.075Z,9.33
2017-11-15T08:31:54.412Z,9.23
2017-11-15T08:34:22.792Z,12.07
2017-11-15T08:36:51.137Z,10.60
2017-11-15T08:39:19.490Z,10.87
2017-11-15T08:41:47.838Z,10.27
2017-11-15T08:44:16.331Z,11.57
2017-11-15T08:46:44.693Z,11.67
2017-11-15T08:49:13.040Z,11.80
2017-11-15T08:51:41.556Z,10.93
2017-11-15T08:54:09.897Z,13.37
2017-11-15T08:56:38.365Z,8.70
2017-11-15T08:59:06.709Z,9.47
2017-11-15T09:01:35.063Z,8.43
2017-11-15T09:04:03.402Z,11.30
2017-11-15T09:06:31.748Z,10.80
2017-11-15T09:09:00.220Z,11.67
2017-11-15T09:11:28.639Z,14.10
2017-11-15T09:13:56.980Z,9.93
2017-11-15T09:16:25.341Z,13.33
2017-11-15T09:18:53.683Z,11.40
2017-11-15T09:21:22.078Z,14.37
2017-11-15T09:23:50.441Z,11.80
2017-11-15T09:26:18.791Z,11.77
2017-11-15T09:28:47.136Z,11.60
2017-11-15T09:31:15.488Z,12.17
2017-11-15T09:33:43.885Z,9.03
2017-11-15T09:36:12.252Z,9.50
2017-11-15T09:38:40.598Z,7.07
2017-11-15T09:41:08.941Z,2.77
2017-11-15T09:43:37.276Z,3.10
2017-11-15T09:46:05.652Z,3.90
2017-11-15T09:48:33.996Z,4.70
2017-11-15T09:51:02.335Z,5.50
2017-11-15T09:53:30.680Z,5.67
2017-11-15T09:55:59.012Z,3.63
2017-11-15T09:58:27.398Z,3.70
2017-11-15T10:00:55.768Z,3.80
2017-11-15T10:03:24.105Z,4.00
2017-11-15T10:05:52.472Z,5.53
2017-11-15T10:08:20.813Z,5.00
2017-11-15T10:10:49.167Z,5.53
2017-11-15T10:13:17.500Z,6.57
2017-11-15T10:15:45.872Z,10.20
2017-11-15T10:18:14.224Z,11.30
2017-11-15T10:20:42.574Z,10.77
2017-11-15T10:23:10.926Z,12.03
2017-11-15T10:25:39.277Z,10.77
2017-11-15T10:28:07.674Z,10.33
2017-11-15T10:30:36.021Z,11.80
2017-11-15T10:33:04.373Z,11.30
2017-11-15T10:35:32.751Z,10.17
2017-11-15T10:38:01.097Z,13.03
2017-11-15T10:40:29.766Z,11.77
2017-11-15T10:42:58.124Z,12.37
2017-11-15T10:45:26.501Z,13.47
2017-11-15T10:47:54.858Z,11.13
2017-11-15T10:50:23.199Z,11.70
2017-11-15T10:52:51.545Z,15.10
2017-11-15T10:55:19.885Z,11.27
2017-11-15T10:57:48.260Z,11.93
2017-11-15T11:00:16.619Z,11.93
2017-11-15T11:02:45.094Z,12.10
2017-11-15T11:05:13.448Z,10.67
2017-11-15T11:07:41.814Z,13.80
2017-11-15T11:10:10.171Z,13.03
2017-11-15T11:12:38.522Z,13.37
2017-11-15T11:15:06.908Z,11.30
2017-11-15T11:17:35.256Z,12.70
2017-11-15T11:20:03.619Z,16.00
2017-11-15T11:22:31.964Z,12.10
2017-11-15T11:25:00.315Z,13.60
2017-11-15T11:27:28.804Z,10.00
2017-11-15T11:29:57.941Z,13.17
2017-11-15T11:32:26.307Z,13.20
2017-11-15T11:34:54.665Z,11.67
2017-11-15T11:37:23.020Z,8.77
2017-11-15T11:39:51.444Z,10.20
2017-11-15T11:42:19.863Z,13.80
2017-11-15T11:44:48.216Z,12.17
2017-11-15T11:47:16.559Z,10.90
2017-11-15T11:49:44.904Z,11.00
2017-11-15T11:52:13.302Z,10.80
2017-11-15T11:54:41.645Z,12.03
2017-11-15T11:57:09.992Z,16.30
2017-11-15T11:59:38.359Z,9.50
2017-11-15T12:02:06.705Z,10.90
2017-11-15T12:04:35.185Z,13.80
2017-11-15T12:07:03.530Z,8.80
2017-11-15T12:09:31.868Z,14.13
2017-11-15T12:12:00.224Z,13.80
2017-11-15T12:14:28.582Z,11.67
2017-11-15T12:16:56.966Z,10.47
2017-11-15T12:19:25.376Z,13.67
2017-11-15T12:21:53.764Z,11.47
2017-11-15T12:24:22.114Z,13.00
2017-11-15T12:26:50.462Z,11.70
2017-11-15T12:29:18.833Z,9.00
2017-11-15T12:31:47.180Z,9.60
2017-11-15T12:34:15.552Z,9.37
2017-11-15T12:36:43.912Z,7.77
2017-11-15T12:39:12.451Z,8.80
2017-11-15T12:41:40.801Z,8.07
2017-11-15T12:44:09.142Z,9.20
2017-11-15T12:46:37.492Z,9.20
2017-11-15T12:49:05.872Z,10.03
2017-11-15T12:51:34.248Z,7.27
2017-11-15T12:54:02.585Z,8.53
2017-11-15T12:56:31.013Z,7.00
2017-11-15T12:58:59.368Z,8.83
2017-11-15T13:01:27.718Z,2.90
2017-11-15T13:03:56.100Z,4.40
2017-11-15T13:06:24.456Z,5.70
2017-11-15T13:08:52.941Z,4.50
2017-11-15T13:11:21.284Z,4.10
2017-11-15T13:13:49.617Z,4.87
2017-11-15T13:16:17.959Z,5.97
2017-11-15T13:18:46.292Z,4.50
2017-11-15T13:21:14.764Z,2.33
2017-11-15T13:23:43.109Z,2.50
2017-11-15T13:26:11.502Z,2.93
2017-11-15T13:28:40.074Z,1.80
2017-11-15T13:31:08.895Z,1.63
2017-11-15T13:33:38.426Z,1.70
2017-11-15T13:36:06.888Z,2.00
2017-11-15T13:38:35.236Z,4.83
2017-11-15T13:41:03.594Z,1.90
2017-11-15T13:43:31.932Z,1.50
2017-11-15T13:46:00.398Z,1.83
2017-11-15T13:48:28.753Z,2.30
2017-11-15T13:50:57.092Z,1.47
2017-11-15T13:53:25.432Z,2.50
2017-11-15T13:55:53.774Z,2.30
2017-11-15T13:58:22.157Z,2.40
2017-11-15T14:00:50.515Z,1.67
2017-11-15T14:03:18.869Z,2.63
2017-11-15T14:05:47.241Z,8.90
2017-11-15T14:08:15.586Z,1.80
2017-11-15T14:10:43.973Z,1.67
2017-11-15T14:13:12.327Z,1.43
2017-11-15T14:15:40.699Z,3.00
2017-11-15T14:18:09.041Z,2.93
2017-11-15T14:20:37.389Z,2.00
2017-11-15T14:23:05.772Z,1.47
2017-11-15T14:25:34.167Z,3.23
2017-11-15T14:28:02.537Z,2.13
2017-11-15T14:30:30.968Z,1.63
2017-11-15T14:32:59.517Z,2.03
2017-11-15T14:35:27.862Z,5.00
2017-11-15T14:37:56.213Z,3.03
2017-11-15T14:40:24.595Z,3.63
2017-11-15T14:42:52.944Z,3.57
2017-11-15T14:45:21.344Z,5.20
2017-11-15T14:47:49.688Z,2.60
2017-11-15T14:50:18.038Z,1.87
2017-11-15T14:52:46.956Z,3.10
2017-11-15T14:55:15.292Z,3.70
2017-11-15T14:57:43.651Z,2.20
2017-11-15T15:00:25.446Z,2.67
2017-11-15T15:02:53.801Z,2.70
2017-11-15T15:05:22.172Z,4.47
2017-11-15T15:07:50.534Z,2.90
2017-11-15T15:10:18.924Z,8.00
2017-11-15T15:12:47.309Z,6.53
2017-11-15T15:15:15.696Z,9.10
2017-11-15T15:17:44.547Z,6.20
2017-11-15T15:20:12.902Z,7.67
2017-11-15T15:22:41.273Z,6.40
2017-11-15T15:25:09.625Z,5.80
2017-11-15T15:27:38.045Z,5.00
2017-11-15T15:30:07.436Z,8.50
2017-11-15T15:32:35.777Z,6.33
2017-11-15T15:35:04.341Z,4.70
2017-11-15T15:37:32.918Z,5.60
2017-11-15T15:40:01.317Z,2.30
2017-11-15T15:42:29.683Z,2.30
2017-11-15T15:44:58.029Z,2.60
2017-11-15T15:47:26.375Z,3.60
2017-11-15T15:49:54.747Z,3.67
2017-11-15T15:52:23.079Z,4.30
2017-11-15T15:54:51.470Z,3.50
2017-11-15T15:57:19.850Z,4.77
2017-11-15T15:59:48.202Z,3.50
2017-11-15T16:02:16.544Z,4.17
2017-11-15T16:04:44.889Z,2.77
2017-11-15T16:07:13.253Z,4.50
2017-11-15T16:09:41.643Z,5.63
2017-11-15T16:12:09.981Z,3.93
2017-11-15T16:14:38.321Z,9.10
2017-11-15T16:17:06.662Z,4.37
2017-11-15T16:19:35.007Z,15.13
2017-11-15T16:22:03.386Z,5.23
2017-11-15T16:24:31.728Z,8.60
2017-11-15T16:27:00.072Z,7.87
2017-11-15T16:29:28.416Z,6.47
2017-11-15T16:31:56.761Z,6.27
2017-11-15T16:34:25.104Z,7.47
2017-11-15T16:36:53.455Z,5.40
2017-11-15T16:39:21.822Z,8.00
2017-11-15T16:41:50.201Z,8.70
2017-11-15T16:44:18.568Z,5.87
2017-11-15T16:46:46.960Z,5.67
2017-11-15T16:49:15.307Z,8.17
2017-11-15T16:51:43.777Z,3.87
2017-11-15T16:54:12.865Z,5.40
2017-11-15T16:56:41.223Z,7.03
2017-11-15T16:59:09.580Z,7.00
2017-11-15T17:01:38.494Z,7.27
2017-11-15T17:04:06.989Z,7.83
2017-11-15T17:06:35.336Z,9.70
2017-11-15T17:09:06.424Z,11.73
2017-11-15T17:11:36.011Z,9.30
2017-11-15T17:14:04.545Z,12.33
2017-11-15T17:16:32.920Z,9.50
2017-11-15T17:19:01.265Z,8.33
2017-11-15T17:21:29.661Z,8.93
2017-11-15T17:23:58.018Z,7.20
2017-11-15T17:26:26.446Z,7.97
2017-11-15T17:28:54.818Z,8.27
2017-11-15T17:31:23.161Z,14.63
2017-11-15T17:33:51.539Z,13.43
2017-11-15T17:36:19.918Z,11.30
2017-11-15T17:38:48.283Z,10.90
2017-11-15T17:41:16.620Z,7.80
2017-11-15T17:43:45.000Z,10.30
2017-11-15T17:46:13.352Z,8.93
2017-11-15T17:48:42.620Z,10.17
2017-11-15T17:51:11.000Z,10.53
2017-11-15T17:53:39.342Z,8.53
2017-11-15T17:56:07.738Z,16.57
2017-11-15T17:58:36.132Z,13.27
2017-11-15T18:01:04.493Z,13.63
2017-11-15T18:03:32.833Z,13.87
2017-11-15T18:06:01.236Z,10.07
2017-11-15T18:08:29.601Z,11.40
2017-11-15T18:10:58.126Z,11.63
2017-11-15T18:13:26.571Z,13.00
2017-11-15T18:15:54.978Z,12.77
2017-11-15T18:18:23.383Z,13.43
2017-11-15T18:20:51.740Z,17.63
2017-11-15T18:23:20.088Z,15.40
2017-11-15T18:25:48.490Z,20.80
2017-11-15T18:28:17.005Z,20.10
2017-11-15T18:30:47.684Z,24.20
2017-11-15T18:33:16.036Z,20.23
2017-11-15T18:35:44.429Z,22.80
2017-11-15T18:38:12.788Z,22.90
2017-11-15T18:40:41.265Z,20.30
2017-11-15T18:43:09.639Z,23.07
2017-11-15T18:45:37.994Z,23.00
2017-11-15T18:48:06.348Z,23.70
2017-11-15T18:50:34.717Z,23.00
2017-11-15T18:53:03.248Z,19.53
2017-11-15T18:55:34.729Z,18.40
2017-11-15T18:58:07.780Z,19.77
2017-11-15T19:00:38.454Z,19.40
2017-11-15T19:03:10.174Z,19.00
2017-11-15T19:05:42.862Z,19.23
2017-11-15T19:08:15.459Z,18.60
2017-11-15T19:10:45.600Z,21.00
2017-11-15T19:13:14.309Z,22.37
2017-11-15T19:15:42.745Z,19.17
2017-11-15T19:18:11.476Z,22.50
2017-11-15T19:20:39.864Z,21.50
2017-11-15T19:23:08.289Z,23.30
2017-11-15T19:25:36.649Z,18.53
2017-11-15T19:28:05.031Z,22.03
2017-11-15T19:30:33.395Z,18.03
2017-11-15T19:33:01.756Z,20.00
2017-11-15T19:35:30.197Z,18.23
2017-11-15T19:37:58.581Z,18.03
2017-11-15T19:40:26.952Z,18.37
2017-11-15T19:42:55.313Z,20.50
2017-11-15T19:45:23.688Z,19.50
2017-11-15T19:47:52.095Z,17.87
2017-11-15T19:50:20.458Z,18.43
2017-11-15T19:52:48.807Z,26.00
2017-11-15T19:55:17.165Z,19.37
2017-11-15T19:57:45.600Z,21.13
2017-11-15T20:00:14.158Z,16.80
2017-11-15T20:02:42.552Z,18.70
2017-11-15T20:05:10.966Z,17.40
2017-11-15T20:07:40.491Z,14.33
2017-11-15T20:10:08.964Z,13.53
2017-11-15T20:12:37.325Z,15.23
2017-11-15T20:15:05.728Z,13.43
2017-11-15T20:17:34.095Z,13.90
2017-11-15T20:20:02.438Z,13.50
2017-11-15T20:22:30.783Z,15.00
2017-11-15T20:24:59.167Z,14.27
2017-11-15T20:27:27.650Z,12.50
2017-11-15T20:29:56.004Z,14.27
2017-11-15T20:32:24.362Z,14.47
2017-11-15T20:34:52.709Z,15.80
2017-11-15T20:37:21.079Z,17.70
2017-11-15T20:39:49.525Z,14.00
2017-11-15T20:42:17.872Z,15.60
2017-11-15T20:44:46.239Z,14.80
2017-11-15T20:47:14.588Z,10.67
2017-11-15T20:49:42.940Z,10.27
2017-11-15T20:52:11.328Z,7.00
2017-11-15T20:54:39.672Z,5.23
2017-11-15T20:57:08.026Z,2.80
2017-11-15T20:59:36.377Z,1.87
2017-11-15T21:02:04.740Z,2.20
2017-11-15T21:04:33.332Z,1.30
2017-11-15T21:07:01.721Z,1.73
2017-11-15T21:09:30.094Z,2.23
2017-11-15T21:11:58.436Z,14.03
2017-11-15T21:14:26.858Z,12.27
2017-11-15T21:16:55.540Z,9.23
2017-11-15T21:19:24.152Z,15.43
2017-11-15T21:21:52.560Z,10.70
2017-11-15T21:24:20.987Z,14.67
2017-11-15T21:26:49.328Z,11.87
2017-11-15T21:29:17.667Z,11.90
2017-11-15T21:31:46.786Z,8.27
2017-11-15T21:34:15.408Z,2.30
2017-11-15T21:36:43.946Z,2.00
2017-11-15T21:39:12.462Z,1.77
2017-11-15T21:41:40.826Z,3.30
2017-11-15T21:44:09.241Z,2.97
2017-11-15T21:46:37.643Z,2.30
2017-11-15T21:49:06.003Z,2.90
2017-11-15T21:51:34.355Z,3.77
2017-11-15T21:54:02.691Z,2.80
2017-11-15T21:56:31.033Z,4.50
2017-11-15T21:58:59.581Z,5.40
2017-11-15T22:01:27.924Z,5.97
2017-11-15T22:03:56.301Z,4.60
2017-11-15T22:06:24.644Z,3.53
2017-11-15T22:08:53.008Z,3.57
2017-11-15T22:11:21.364Z,3.50
2017-11-15T22:13:49.752Z,6.17
2017-11-15T22:16:18.118Z,4.90
2017-11-15T22:18:46.469Z,3.20
2017-11-15T22:21:14.840Z,3.73
2017-11-15T22:23:45.013Z,2.63
2017-11-15T22:26:13.460Z,3.80
2017-11-15T22:28:41.801Z,2.50
2017-11-15T22:31:10.144Z,1.90
2017-11-15T22:33:38.548Z,2.33
2017-11-15T22:36:07.016Z,2.90
2017-11-15T22:38:35.395Z,3.43
2017-11-15T22:41:03.747Z,2.87
2017-11-15T22:43:32.103Z,3.27
2017-11-15T22:46:00.449Z,3.00
2017-11-15T22:48:28.825Z,3.10
2017-11-15T22:50:57.187Z,3.63
2017-11-15T22:53:25.529Z,3.27
2017-11-15T22:55:53.873Z,3.93
2017-11-15T22:58:22.212Z,3.07
2017-11-15T23:00:50.556Z,6.37
2017-11-15T23:03:18.929Z,5.90
2017-11-15T23:05:47.279Z,5.00
2017-11-15T23:08:15.618Z,6.30
2017-11-15T23:10:44.003Z,3.80
2017-11-15T23:13:12.347Z,3.40
2017-11-15T23:15:40.717Z,5.13
2017-11-15T23:18:09.060Z,4.90
2017-11-15T23:20:37.409Z,5.00
2017-11-15T23:23:05.744Z,4.07
2017-11-15T23:25:34.094Z,5.10
2017-11-15T23:28:02.457Z,5.23
2017-11-15T23:30:30.793Z,4.00
2017-11-15T23:32:59.157Z,3.70
2017-11-15T23:35:27.636Z,3.90
2017-11-15T23:37:55.982Z,5.90
2017-11-15T23:40:24.321Z,5.47
2017-11-15T23:42:52.670Z,6.30
2017-11-15T23:45:21.017Z,6.33
2017-11-15T23:47:49.360Z,5.10
2017-11-15T23:50:17.731Z,6.40
2017-11-15T23:52:46.076Z,8.90
2017-11-15T23:55:14.417Z,8.90
2017-11-15T23:57:42.796Z,10.27
